Kisaragi Maru No.11 — JD2766 — position and weather

sailwx.info

Track history (hours):
 
Tides and Currents Weather Stations Pressure Air Temp Water Temp Dewpoint Dewpoint Depression Visibility Wind Speed Wind Dir Waves Ship Positions

Kisaragi Maru No.11

Last reported at 2017-Dec-16 04:48 UTC. Time now 2017-Dec-17 17:33 UTC.
Position N 34°37' E 136°54'.

Length 79 m; draft 5.3 m.

MMSI: 431000664.

Date/timePositionNaut miles runAvg speedWind from/ knotsBaromVisibWave heightAir tempDewpointWater temp
2017-Dec-16 04:48N 34°37' E 136°54'412.0
2017-Dec-16 04:30N 34°40' E 136°51'612.2
2017-Dec-16 04:00N 34°45' E 136°47'611.9
2017-Dec-16 03:30N 34°51' E 136°46'612.1
2017-Dec-16 03:00N 34°57' E 136°47'3 6.4
2017-Dec-16 02:28N 34°59' E 136°50'0 0.0
2017-Dec-16 01:58N 34°59' E 136°50'0 0.0
2017-Dec-16 01:28N 34°59' E 136°50'0 0.0
2017-Dec-16 00:58N 34°59' E 136°50'0 0.0
2017-Dec-16 00:25N 34°59' E 136°50'0 0.0
2017-Dec-15 23:58N 34°59' E 136°50'0 0.0
2017-Dec-15 23:30N 34°59' E 136°50'1 2.4
2017-Dec-15 23:00N 34°58' E 136°49'2 2.9
2017-Dec-15 22:29N 34°58' E 136°47'0 0.0
2017-Dec-15 21:59N 34°58' E 136°47'0 0.0
2017-Dec-15 21:26N 34°58' E 136°47'0 0.0
2017-Dec-15 20:59N 34°58' E 136°47'0 0.0
2017-Dec-15 20:29N 34°58' E 136°47'0 0.0
2017-Dec-15 19:59N 34°58' E 136°47'0 0.0
2017-Dec-15 19:29N 34°58' E 136°47'0 0.0
2017-Dec-15 18:56N 34°58' E 136°47'0 0.0
2017-Dec-15 18:29N 34°58' E 136°47'0 0.1
2017-Dec-15 17:56N 34°58' E 136°47'0 0.1
2017-Dec-15 17:29N 34°58' E 136°47'0 0.0
2017-Dec-15 16:59N 34°58' E 136°47'0 0.0
2017-Dec-15 16:29N 34°58' E 136°47'0 0.0
2017-Dec-15 15:59N 34°58' E 136°47'0 0.0
2017-Dec-15 15:29N 34°58' E 136°47'0 0.0
2017-Dec-15 14:59N 34°58' E 136°47'0 0.0
2017-Dec-15 14:29N 34°58' E 136°47'0 0.0
2017-Dec-15 13:59N 34°58' E 136°47'0 0.0
2017-Dec-15 13:29N 34°58' E 136°47'0 0.0
2017-Dec-15 12:59N 34°58' E 136°47'0 0.1
2017-Dec-15 12:29N 34°58' E 136°47'0 0.0
2017-Dec-15 11:59N 34°58' E 136°47'0 0.0
2017-Dec-15 11:29N 34°58' E 136°47'0 0.0
2017-Dec-15 10:59N 34°58' E 136°47'0 0.0
2017-Dec-15 10:29N 34°58' E 136°47'3 7.0
2017-Dec-15 10:00N 34°54' E 136°47'612.4
2017-Dec-15 09:31N 34°48' E 136°48'712.4
2017-Dec-15 08:58N 34°42' E 136°51'2012.1
2017-Dec-15 07:19N 34°32' E 137°12'5611.7
2017-Dec-15 02:31N 34°44' E 138°18'9 1.1
2017-Dec-14 18:30N 34°43' E 138°29'612.8
2017-Dec-14 18:00N 34°40' E 138°36'712.8
2017-Dec-14 17:28N 34°38' E 138°43'612.0
2017-Dec-14 16:59N 34°35' E 138°50'511.2
2017-Dec-14 16:31N 34°36' E 138°56'713.2
2017-Dec-14 16:00N 34°40' E 139°03'2011.7
2017-Dec-14 14:19N 34°53' E 139°21'310.8
2017-Dec-14 14:00N 34°55' E 139°24'611.6
2017-Dec-14 13:27N 34°59' E 139°30'611.7
2017-Dec-14 12:58N 35°02' E 139°36'712.5
2017-Dec-14 12:25N 35°06' E 139°42'512.6
2017-Dec-14 12:00N 35°11' E 139°45'612.3
2017-Dec-14 11:30N 35°17' E 139°45'612.2
2017-Dec-14 11:00N 35°23' E 139°42'612.3
2017-Dec-14 10:31N 35°27' E 139°48'612.2
2017-Dec-14 10:00N 35°30' E 139°54'611.7
2017-Dec-14 09:30N 35°30' E 140°02'0 0.2
2017-Dec-14 08:13N 35°30' E 140°02'0 0.0
2017-Dec-14 07:43N 35°30' E 140°02'0 0.0
2017-Dec-14 07:07N 35°30' E 140°02'0 0.0
2017-Dec-14 06:52N 35°30' E 140°02'0 0.0
2017-Dec-14 06:25N 35°30' E 140°02'0 0.0
2017-Dec-14 05:55N 35°30' E 140°02'0 0.0
2017-Dec-14 04:46N 35°30' E 140°02'0 0.0
2017-Dec-14 04:25N 35°30' E 140°02'0 0.0
2017-Dec-14 03:55N 35°30' E 140°02'0 0.6
2017-Dec-14 03:30N 35°30' E 140°02'2 4.3
2017-Dec-14 02:59N 35°31' E 139°60'0 0.0
2017-Dec-14 02:30N 35°31' E 139°60'0 0.0
2017-Dec-14 02:00N 35°31' E 139°60'0 0.1
2017-Dec-14 01:30N 35°31' E 139°60'0 0.1
2017-Dec-14 01:01N 35°31' E 139°60'0 0.0
2017-Dec-14 00:29N 35°31' E 139°60'0 0.0
2017-Dec-14 00:00N 35°31' E 139°60'0 0.0
2017-Dec-13 23:30N 35°31' E 139°60'0 0.1
2017-Dec-13 22:59N 35°31' E 139°60'0 0.1
2017-Dec-13 22:29N 35°31' E 139°60'1 2.8
2017-Dec-13 22:00N 35°30' E 140°00'0 0.0
2017-Dec-13 21:30N 35°30' E 140°00'0 0.0
2017-Dec-13 21:00N 35°30' E 140°00'0 0.0
2017-Dec-13 20:30N 35°30' E 140°00'0 0.0
2017-Dec-13 20:00N 35°30' E 140°00'0 0.0
2017-Dec-13 19:30N 35°30' E 140°00'0 0.0
2017-Dec-13 19:00N 35°30' E 140°00'0 0.0
2017-Dec-13 18:30N 35°30' E 140°00'0 0.0
2017-Dec-13 18:00N 35°30' E 140°00'0 0.0
2017-Dec-13 17:31N 35°30' E 140°00'0 0.0
2017-Dec-13 17:00N 35°30' E 140°00'0 0.0
2017-Dec-13 16:31N 35°30' E 140°00'0 0.0
2017-Dec-13 16:00N 35°30' E 140°00'0 0.1
2017-Dec-13 15:30N 35°30' E 139°60'0 0.0
2017-Dec-13 15:00N 35°30' E 139°60'0 0.0
2017-Dec-13 14:30N 35°30' E 139°60'0 0.0
2017-Dec-13 14:00N 35°30' E 139°60'0 0.4
2017-Dec-13 13:30N 35°30' E 139°60'612.1
2017-Dec-13 13:00N 35°29' E 139°53'612.6
2017-Dec-13 12:31N 35°25' E 139°47'612.5
2017-Dec-13 12:00N 35°19' E 139°44'612.1
2017-Dec-13 11:30N 35°13' E 139°47'612.3
2017-Dec-13 11:00N 35°07' E 139°46'  
2017-Dec-09 12:18N 35°05' E 140°19'711.6
2017-Dec-09 11:44N 35°01' E 140°12'310.8
2017-Dec-09 11:26N 34°59' E 140°09'611.3
2017-Dec-09 10:56N 34°56' E 140°03'1112.0
2017-Dec-09 10:02N 34°52' E 139°51'013.2
2017-Dec-09 10:01N 34°52' E 139°50'712.7
2017-Dec-09 09:28N 34°57' E 139°44'510.8
2017-Dec-09 08:59N 35°02' E 139°44'612.4
2017-Dec-09 08:30N 35°08' E 139°45'612.5
2017-Dec-09 08:00N 35°14' E 139°46'612.1
2017-Dec-09 07:30N 35°20' E 139°43'611.2
2017-Dec-09 07:00N 35°25' E 139°44'612.2
2017-Dec-09 06:30N 35°29' E 139°50'612.1
2017-Dec-09 06:00N 35°30' E 139°57'4 7.6
2017-Dec-09 05:30N 35°30' E 140°02'0 0.0
2017-Dec-09 04:59N 35°30' E 140°02'0 0.0
2017-Dec-09 04:19N 35°30' E 140°02'0 0.0
2017-Dec-09 03:58N 35°30' E 140°02'0 0.0
2017-Dec-09 03:30N 35°30' E 140°02'0 0.3
2017-Dec-09 02:59N 35°30' E 140°02'2 3.5
2017-Dec-09 02:30N 35°30' E 139°60'1 2.5
2017-Dec-09 02:00N 35°31' E 139°59'4 7.5
2017-Dec-09 01:30N 35°31' E 139°55'510.7
2017-Dec-09 01:00N 35°30' E 139°48'2 3.4
2017-Dec-09 00:30N 35°31' E 139°46'0 0.0
2017-Dec-09 00:00N 35°31' E 139°46'0 0.0
2017-Dec-08 23:30N 35°31' E 139°46'0 0.0
2017-Dec-08 23:00N 35°31' E 139°46'0 0.4
2017-Dec-08 22:30N 35°31' E 139°46'4 8.4
2017-Dec-08 22:00N 35°26' E 139°47'612.3
2017-Dec-08 21:30N 35°21' E 139°45'611.7
2017-Dec-08 21:00N 35°15' E 139°47'612.7
2017-Dec-08 20:30N 35°09' E 139°46'612.7
2017-Dec-08 20:00N 35°03' E 139°44'612.2
2017-Dec-08 19:30N 34°56' E 139°45'1811.3
2017-Dec-08 17:54N 34°58' E 140°06'  
Track history (hours):
 
Tides and Currents Weather Stations Pressure Air Temp Water Temp Dewpoint Dewpoint Depression Visibility Wind Speed Wind Dir Waves Ship Positions

Kisaragi Maru No.11

Last reported at 2017-Dec-16 04:48 UTC. Time now 2017-Dec-17 17:33 UTC.
Position N 34°37' E 136°54'.

Length 79 m; draft 5.3 m.

MMSI: 431000664.

Date/timePositionNaut miles runAvg speedWind from/ knotsBaromVisibWave heightAir tempDewpointWater temp
2017-Dec-16 04:48N 34°37' E 136°54'412.0
2017-Dec-16 04:30N 34°40' E 136°51'612.2
2017-Dec-16 04:00N 34°45' E 136°47'611.9
2017-Dec-16 03:30N 34°51' E 136°46'612.1
2017-Dec-16 03:00N 34°57' E 136°47'3 6.4
2017-Dec-16 02:28N 34°59' E 136°50'0 0.0
2017-Dec-16 01:58N 34°59' E 136°50'0 0.0
2017-Dec-16 01:28N 34°59' E 136°50'0 0.0
2017-Dec-16 00:58N 34°59' E 136°50'0 0.0
2017-Dec-16 00:25N 34°59' E 136°50'0 0.0
2017-Dec-15 23:58N 34°59' E 136°50'0 0.0
2017-Dec-15 23:30N 34°59' E 136°50'1 2.4
2017-Dec-15 23:00N 34°58' E 136°49'2 2.9
2017-Dec-15 22:29N 34°58' E 136°47'0 0.0
2017-Dec-15 21:59N 34°58' E 136°47'0 0.0
2017-Dec-15 21:26N 34°58' E 136°47'0 0.0
2017-Dec-15 20:59N 34°58' E 136°47'0 0.0
2017-Dec-15 20:29N 34°58' E 136°47'0 0.0
2017-Dec-15 19:59N 34°58' E 136°47'0 0.0
2017-Dec-15 19:29N 34°58' E 136°47'0 0.0
2017-Dec-15 18:56N 34°58' E 136°47'0 0.0
2017-Dec-15 18:29N 34°58' E 136°47'0 0.1
2017-Dec-15 17:56N 34°58' E 136°47'0 0.1
2017-Dec-15 17:29N 34°58' E 136°47'0 0.0
2017-Dec-15 16:59N 34°58' E 136°47'0 0.0
2017-Dec-15 16:29N 34°58' E 136°47'0 0.0
2017-Dec-15 15:59N 34°58' E 136°47'0 0.0
2017-Dec-15 15:29N 34°58' E 136°47'0 0.0
2017-Dec-15 14:59N 34°58' E 136°47'0 0.0
2017-Dec-15 14:29N 34°58' E 136°47'0 0.0
2017-Dec-15 13:59N 34°58' E 136°47'0 0.0
2017-Dec-15 13:29N 34°58' E 136°47'0 0.0
2017-Dec-15 12:59N 34°58' E 136°47'0 0.1
2017-Dec-15 12:29N 34°58' E 136°47'0 0.0
2017-Dec-15 11:59N 34°58' E 136°47'0 0.0
2017-Dec-15 11:29N 34°58' E 136°47'0 0.0
2017-Dec-15 10:59N 34°58' E 136°47'0 0.0
2017-Dec-15 10:29N 34°58' E 136°47'3 7.0
2017-Dec-15 10:00N 34°54' E 136°47'612.4
2017-Dec-15 09:31N 34°48' E 136°48'712.4
2017-Dec-15 08:58N 34°42' E 136°51'2012.1
2017-Dec-15 07:19N 34°32' E 137°12'5611.7
2017-Dec-15 02:31N 34°44' E 138°18'9 1.1
2017-Dec-14 18:30N 34°43' E 138°29'612.8
2017-Dec-14 18:00N 34°40' E 138°36'712.8
2017-Dec-14 17:28N 34°38' E 138°43'612.0
2017-Dec-14 16:59N 34°35' E 138°50'511.2
2017-Dec-14 16:31N 34°36' E 138°56'713.2
2017-Dec-14 16:00N 34°40' E 139°03'2011.7
2017-Dec-14 14:19N 34°53' E 139°21'310.8
2017-Dec-14 14:00N 34°55' E 139°24'611.6
2017-Dec-14 13:27N 34°59' E 139°30'611.7
2017-Dec-14 12:58N 35°02' E 139°36'712.5
2017-Dec-14 12:25N 35°06' E 139°42'512.6
2017-Dec-14 12:00N 35°11' E 139°45'612.3
2017-Dec-14 11:30N 35°17' E 139°45'612.2
2017-Dec-14 11:00N 35°23' E 139°42'612.3
2017-Dec-14 10:31N 35°27' E 139°48'612.2
2017-Dec-14 10:00N 35°30' E 139°54'611.7
2017-Dec-14 09:30N 35°30' E 140°02'0 0.2
2017-Dec-14 08:13N 35°30' E 140°02'0 0.0
2017-Dec-14 07:43N 35°30' E 140°02'0 0.0
2017-Dec-14 07:07N 35°30' E 140°02'0 0.0
2017-Dec-14 06:52N 35°30' E 140°02'0 0.0
2017-Dec-14 06:25N 35°30' E 140°02'0 0.0
2017-Dec-14 05:55N 35°30' E 140°02'0 0.0
2017-Dec-14 04:46N 35°30' E 140°02'0 0.0
2017-Dec-14 04:25N 35°30' E 140°02'0 0.0
2017-Dec-14 03:55N 35°30' E 140°02'0 0.6
2017-Dec-14 03:30N 35°30' E 140°02'2 4.3
2017-Dec-14 02:59N 35°31' E 139°60'0 0.0
2017-Dec-14 02:30N 35°31' E 139°60'0 0.0
2017-Dec-14 02:00N 35°31' E 139°60'0 0.1
2017-Dec-14 01:30N 35°31' E 139°60'0 0.1
2017-Dec-14 01:01N 35°31' E 139°60'0 0.0
2017-Dec-14 00:29N 35°31' E 139°60'0 0.0
2017-Dec-14 00:00N 35°31' E 139°60'0 0.0
2017-Dec-13 23:30N 35°31' E 139°60'0 0.1
2017-Dec-13 22:59N 35°31' E 139°60'0 0.1
2017-Dec-13 22:29N 35°31' E 139°60'1 2.8
2017-Dec-13 22:00N 35°30' E 140°00'0 0.0
2017-Dec-13 21:30N 35°30' E 140°00'0 0.0
2017-Dec-13 21:00N 35°30' E 140°00'0 0.0
2017-Dec-13 20:30N 35°30' E 140°00'0 0.0
2017-Dec-13 20:00N 35°30' E 140°00'0 0.0
2017-Dec-13 19:30N 35°30' E 140°00'0 0.0
2017-Dec-13 19:00N 35°30' E 140°00'0 0.0
2017-Dec-13 18:30N 35°30' E 140°00'0 0.0
2017-Dec-13 18:00N 35°30' E 140°00'0 0.0
2017-Dec-13 17:31N 35°30' E 140°00'0 0.0
2017-Dec-13 17:00N 35°30' E 140°00'0 0.0
2017-Dec-13 16:31N 35°30' E 140°00'0 0.0
2017-Dec-13 16:00N 35°30' E 140°00'0 0.1
2017-Dec-13 15:30N 35°30' E 139°60'0 0.0
2017-Dec-13 15:00N 35°30' E 139°60'0 0.0
2017-Dec-13 14:30N 35°30' E 139°60'0 0.0
2017-Dec-13 14:00N 35°30' E 139°60'0 0.4
2017-Dec-13 13:30N 35°30' E 139°60'612.1
2017-Dec-13 13:00N 35°29' E 139°53'612.6
2017-Dec-13 12:31N 35°25' E 139°47'612.5
2017-Dec-13 12:00N 35°19' E 139°44'612.1
2017-Dec-13 11:30N 35°13' E 139°47'612.3
2017-Dec-13 11:00N 35°07' E 139°46'  
2017-Dec-09 12:18N 35°05' E 140°19'711.6
2017-Dec-09 11:44N 35°01' E 140°12'310.8
2017-Dec-09 11:26N 34°59' E 140°09'611.3
2017-Dec-09 10:56N 34°56' E 140°03'1112.0
2017-Dec-09 10:02N 34°52' E 139°51'013.2
2017-Dec-09 10:01N 34°52' E 139°50'712.7
2017-Dec-09 09:28N 34°57' E 139°44'510.8
2017-Dec-09 08:59N 35°02' E 139°44'612.4
2017-Dec-09 08:30N 35°08' E 139°45'612.5
2017-Dec-09 08:00N 35°14' E 139°46'612.1
2017-Dec-09 07:30N 35°20' E 139°43'611.2
2017-Dec-09 07:00N 35°25' E 139°44'612.2
2017-Dec-09 06:30N 35°29' E 139°50'612.1
2017-Dec-09 06:00N 35°30' E 139°57'4 7.6
2017-Dec-09 05:30N 35°30' E 140°02'0 0.0
2017-Dec-09 04:59N 35°30' E 140°02'0 0.0
2017-Dec-09 04:19N 35°30' E 140°02'0 0.0
2017-Dec-09 03:58N 35°30' E 140°02'0 0.0
2017-Dec-09 03:30N 35°30' E 140°02'0 0.3
2017-Dec-09 02:59N 35°30' E 140°02'2 3.5
2017-Dec-09 02:30N 35°30' E 139°60'1 2.5
2017-Dec-09 02:00N 35°31' E 139°59'4 7.5
2017-Dec-09 01:30N 35°31' E 139°55'510.7
2017-Dec-09 01:00N 35°30' E 139°48'2 3.4
2017-Dec-09 00:30N 35°31' E 139°46'0 0.0
2017-Dec-09 00:00N 35°31' E 139°46'0 0.0
2017-Dec-08 23:30N 35°31' E 139°46'0 0.0
2017-Dec-08 23:00N 35°31' E 139°46'0 0.4
2017-Dec-08 22:30N 35°31' E 139°46'4 8.4
2017-Dec-08 22:00N 35°26' E 139°47'612.3
2017-Dec-08 21:30N 35°21' E 139°45'611.7
2017-Dec-08 21:00N 35°15' E 139°47'612.7
2017-Dec-08 20:30N 35°09' E 139°46'612.7
2017-Dec-08 20:00N 35°03' E 139°44'612.2
2017-Dec-08 19:30N 34°56' E 139°45'1811.3
2017-Dec-08 17:54N 34°58' E 140°06'  

Dump ship's entire track history